VYYYVDPP

Guest
Details From VYYY - YANGON INTL
To VDPP - Phnom Penh Intl
Flight Number -
Tags generated
Created
Modified
Stats Distance 606 nm / 1,122 km
Max Altitude 35,000 ft / 10,668 m
Waypoints 8
Social Downloads 0
Likes 0
Share VATSIM

Download

Looking for another format? Having issues loading an existing format? Contact us
Advertisement - Login to hide

Notes

Basic altitude profile: - Ascent Rate: 2500ft/min - Ascent Speed: 250kts - Cruise Altitude: 35000ft - Cruise Speed: 420kts - Descent Rate: 1500ft/min - Descent Speed: 250kts Options: - Use NATs: yes - Use PACOTS: yes - Use low airways: yes - Use high airways: yes

Route

VYYY PUMEK G463 BKK R468 PNH VDPP

ID Type Via Altitude Latitude Longitude Leg Dist Tot Dist Heading (true) Name
O VYYY APT - 0 ft / 0 m 16.91084˚ 96.13568˚ - 0 nm - YANGON INTL
PUMEK FIX - 35,000 ft / 10,668 m 15.91806˚ 97.54636˚ 100 nm 100 nm 126° / 126° -
BETNO FIX G463 (AWY-HI) 35,000 ft / 10,668 m 15.09814˚ 98.19964˚ 62 nm 162 nm 142° / 143° -
BKK VOR G463 (AWY-HI) 35,000 ft / 10,668 m 13.89356˚ 100.59619˚ 157 nm 319 nm 117° / 118° BANGKOK VOR-DME
GOMES FIX R468 (AWY-HI) 35,000 ft / 10,668 m 13.40171˚ 101.58492˚ 64 nm 384 nm 117° / 117° -
BOKAK FIX R468 (AWY-HI) 33,600 ft / 10,241 m 12.96008˚ 102.49649˚ 59 nm 444 nm 116° / 117° -
PNH VOR R468 (AWY-LO) 8,000 ft / 2,438 m 11.54667˚ 104.84167˚ 161 nm 605 nm 121° / 122° PHNOM PENH VOR-DME
O VDPP APT - 0 ft / 0 m 11.54654˚ 104.84414˚ 0 nm 606 nm 93° / 93° Phnom Penh Intl

Altitude Profile

Advertisement - Login to hide

Weather


0- 5 10 15 20 25 30 35+ Temperature / ° C

Clouds and Precipitation
Forecast for 2017-12-13 00:00 UTC. Updated an hour ago

Ground ~20,000 ft ~40,000 ft Winds

VYYY

Details ICAO VYYY (RGN)
Name YANGON INTL
Region Myanmar
Timezone Asia/Rangoon (UTC+6.5)
Stats Elevation 109 ft / 33 m (AMSL)
Location 16.910841° 96.135680°
Runways 1
Magnetic Variation 0.635° W

METAR

VYYY 122030Z 26008KT 7000 NSC 25/23 Q1011

Decode

TAF

TAF TAF VYYY 121700Z 1218/1318 29005KT 7000 SCT015 SCT110 TEMPO 1218/1222 NSC BECMG 1300/1302 4000 BR

Decode

Departure Runways

ID Width Length Bearing (true) Bearing (mag) Surface Threshold Offset Overrun Length
03 200 ft / 61 m 11,251 ft / 3,429 m 33.10° 33.73° Asphalt 0 ft / 0 m 194 ft / 59 m
21 200 ft / 61 m 11,251 ft / 3,429 m 213.10° 213.73° Asphalt 276 ft / 84 m 0 ft / 0 m

VDPP

Details ICAO VDPP (PNH)
Name Phnom Penh Intl
Region Cambodia
Timezone Asia/Phnom_Penh (UTC+7.0)
Stats Elevation 40 ft / 12 m (AMSL)
Location 11.546542° 104.844142°
Runways 1
Magnetic Variation 0.493° W

METAR

VDPP 121930Z VRB01KT 9999 FEW017 26/24 Q1009

Decode

TAF

TAF VDPP 121700Z 1218/1312 03005KT 9999 SCT017= TAF VDSR 121700Z 1218/1312 02004KT 9999 SCT017

Decode

Destination Runways

ID Width Length Bearing (true) Bearing (mag) Surface Threshold Offset Overrun Length
05 144 ft / 44 m 9,815 ft / 2,992 m 45.61° 46.10° Asphalt 400 ft / 122 m 0 ft / 0 m
23 144 ft / 44 m 9,815 ft / 2,992 m 225.61° 226.10° Asphalt 492 ft / 150 m 0 ft / 0 m

Approach Navaids

Runway Type Ident Frequency Range Bearing (true) Bearing (mag) Slope Elevation
23 Localiser IPNP 109.70 MHz 18 nm / 33 km 225.62° 226.11° - 40 ft / 12 m (AMSL)
23 Glidescope IPNP 109.70 MHz 10 nm / 19 km 225.61° 226.10° 3.00° 37 ft / 11 m (AMSL)

Popular Alternatives